Terminal Aerodrome Forecast
Issued by NWS Melbourne, FL

Current Version | Previous Version | Text Only | Print | Product List | Glossary On
Versions: 1 2 3 4 5 6 7 8 9 10 11 12 13 14 15 16 17 18 19
228
FTUS42 KMLB 251722
TAFMLB
TAF
KMLB 251722Z 2518/2618 03013G21KT P6SM VCSH SCT030 BKN060
     FM260000 06011KT P6SM VCSH BKN040
     FM260300 07011KT P6SM SCT035 BKN250
     FM260500 08009KT P6SM BKN030=

USA.gov is the U.S. government's official web portal to all federal, state and local government web resources and services.